Time,TemperatureF,DewpointF,PressureIn,WindDirection,WindDirectionDegrees,WindSpeedMPH,WindSpeedGustMPH,Humidity,HourlyPrecipIn,Conditions,Clouds,dailyrainin,SoftwareType,DateUTC
2013-07-24 00:01:00,69.2,64.8,0.00,WNW,293,0.0,0.0,86,0.00,,,0.00,WUHU216HW,2013-07-24 04:01:00,
2013-07-24 00:06:00,69.0,64.6,0.00,WNW,293,0.0,0.0,86,0.00,,,0.00,WUHU216HW,2013-07-24 04:06:00,
2013-07-24 00:11:00,68.9,64.5,0.00,WNW,293,0.0,0.0,86,0.00,,,0.00,WUHU216HW,2013-07-24 04:11:00,
2013-07-24 00:16:00,68.7,64.3,0.00,WNW,293,0.0,0.0,86,0.00,,,0.00,WUHU216HW,2013-07-24 04:16:00,
2013-07-24 00:21:00,68.7,64.6,0.00,WNW,293,0.0,0.0,87,0.00,,,0.00,WUHU216HW,2013-07-24 04:21:00,
2013-07-24 00:26:00,68.7,64.6,0.00,WNW,293,0.0,0.0,87,0.00,,,0.00,WUHU216HW,2013-07-24 04:26:00,
2013-07-24 00:31:00,68.7,64.6,0.00,WNW,293,0.0,0.0,87,0.00,,,0.00,WUHU216HW,2013-07-24 04:31:00,
2013-07-24 00:36:00,68.5,64.4,0.00,WNW,293,0.0,0.0,87,0.00,,,0.00,WUHU216HW,2013-07-24 04:36:00,
2013-07-24 00:41:00,68.5,64.4,0.00,WNW,293,0.0,0.0,87,0.00,,,0.00,WUHU216HW,2013-07-24 04:41:00,
2013-07-24 00:46:00,68.3,64.3,0.00,WNW,293,0.0,0.0,87,0.00,,,0.00,WUHU216HW,2013-07-24 04:46:00,
2013-07-24 00:51:00,68.1,64.3,0.00,WNW,293,0.0,0.0,87,0.00,,,0.00,WUHU216HW,2013-07-24 04:51:00,
2013-07-24 00:56:00,68.1,64.1,0.00,WNW,293,0.0,0.0,87,0.00,,,0.00,WUHU216HW,2013-07-24 04:56:00,
2013-07-24 01:01:00,68.1,64.1,0.00,WNW,293,0.0,0.0,87,0.00,,,0.00,WUHU216HW,2013-07-24 05:01:00,
2013-07-24 01:06:00,68.1,64.1,0.00,WNW,293,0.0,0.0,87,0.00,,,0.00,WUHU216HW,2013-07-24 05:06:00,
2013-07-24 01:11:00,68.1,64.4,0.00,WNW,293,0.0,0.0,88,0.00,,,0.00,WUHU216HW,2013-07-24 05:11:00,
2013-07-24 01:16:00,68.1,64.4,0.00,WNW,293,0.0,0.0,88,0.00,,,0.00,WUHU216HW,2013-07-24 05:16:00,
2013-07-24 01:21:00,68.1,64.4,0.00,WNW,293,0.0,0.0,88,0.00,,,0.00,WUHU216HW,2013-07-24 05:21:00,
2013-07-24 01:26:00,68.1,64.4,0.00,WNW,293,0.0,0.0,88,0.00,,,0.00,WUHU216HW,2013-07-24 05:26:00,
2013-07-24 01:31:00,68.1,64.4,0.00,WNW,293,0.0,0.0,88,0.00,,,0.00,WUHU216HW,2013-07-24 05:31:00,
2013-07-24 01:36:00,68.1,64.4,0.00,WNW,293,0.0,0.0,88,0.00,,,0.00,WUHU216HW,2013-07-24 05:36:00,
2013-07-24 01:41:00,68.1,64.4,0.00,WNW,293,0.0,0.0,88,0.00,,,0.00,WUHU216HW,2013-07-24 05:41:00,
2013-07-24 01:46:00,68.1,64.4,0.00,WNW,293,0.0,0.0,88,0.00,,,0.00,WUHU216HW,2013-07-24 05:46:00,
2013-07-24 01:51:00,68.1,64.4,0.00,WNW,293,0.0,0.0,88,0.00,,,0.00,WUHU216HW,2013-07-24 05:51:00,
2013-07-24 01:56:00,68.1,64.4,0.00,WNW,293,0.0,0.0,88,0.00,,,0.00,WUHU216HW,2013-07-24 05:56:00,
2013-07-24 02:01:00,68.1,64.4,0.00,WNW,293,0.0,0.0,88,0.00,,,0.00,WUHU216HW,2013-07-24 06:01:00,
2013-07-24 02:06:00,68.1,64.4,0.00,WNW,293,0.0,0.0,88,0.00,,,0.00,WUHU216HW,2013-07-24 06:06:00,
2013-07-24 02:11:00,68.1,64.4,0.00,WNW,293,0.0,0.0,88,0.00,,,0.00,WUHU216HW,2013-07-24 06:11:00,
2013-07-24 02:16:00,68.0,64.2,0.00,WNW,293,0.0,0.0,88,0.00,,,0.00,WUHU216HW,2013-07-24 06:16:00,
2013-07-24 02:21:00,68.0,64.2,0.00,WNW,293,0.0,0.0,88,0.00,,,0.00,WUHU216HW,2013-07-24 06:21:00,
2013-07-24 02:26:00,67.8,64.1,0.00,WNW,293,0.0,0.0,88,0.00,,,0.00,WUHU216HW,2013-07-24 06:26:00,
2013-07-24 02:31:00,67.8,64.1,0.00,WNW,293,0.0,0.0,88,0.00,,,0.00,WUHU216HW,2013-07-24 06:31:00,
2013-07-24 02:36:00,67.8,64.1,0.00,WNW,293,0.0,0.0,88,0.00,,,0.00,WUHU216HW,2013-07-24 06:36:00,
2013-07-24 02:41:00,67.8,64.1,0.00,WNW,293,0.0,0.0,88,0.00,,,0.00,WUHU216HW,2013-07-24 06:41:00,
2013-07-24 02:46:00,67.8,64.1,0.00,WNW,293,0.0,0.0,88,0.00,,,0.00,WUHU216HW,2013-07-24 06:46:00,
2013-07-24 02:51:00,67.8,64.1,0.00,WNW,293,0.0,0.0,88,0.00,,,0.00,WUHU216HW,2013-07-24 06:51:00,
2013-07-24 02:56:00,67.8,64.1,0.00,WNW,293,0.0,0.0,88,0.00,,,0.00,WUHU216HW,2013-07-24 06:56:00,
2013-07-24 03:02:00,67.6,63.9,0.00,WNW,293,0.0,0.0,88,0.00,,,0.00,WUHU216HW,2013-07-24 07:02:00,
2013-07-24 03:07:00,67.6,63.9,0.00,WNW,293,0.0,0.0,88,0.00,,,0.00,WUHU216HW,2013-07-24 07:07:00,
2013-07-24 03:12:00,67.6,63.9,0.00,WNW,293,0.0,0.0,88,0.00,,,0.00,WUHU216HW,2013-07-24 07:12:00,
2013-07-24 03:17:00,67.6,63.9,0.00,WNW,293,0.0,0.0,88,0.00,,,0.00,WUHU216HW,2013-07-24 07:17:00,
2013-07-24 03:22:00,67.6,63.9,0.00,WNW,293,0.0,0.0,88,0.00,,,0.00,WUHU216HW,2013-07-24 07:22:00,
2013-07-24 03:27:00,67.6,63.9,0.00,WNW,293,0.0,0.0,88,0.00,,,0.00,WUHU216HW,2013-07-24 07:27:00,
2013-07-24 03:32:00,67.6,63.9,0.00,WNW,293,0.0,0.0,88,0.00,,,0.00,WUHU216HW,2013-07-24 07:32:00,
2013-07-24 03:37:00,67.6,64.2,0.00,WNW,293,0.0,0.0,89,0.00,,,0.00,WUHU216HW,2013-07-24 07:37:00,
2013-07-24 03:42:00,67.6,64.2,0.00,WNW,293,0.0,0.0,89,0.00,,,0.00,WUHU216HW,2013-07-24 07:42:00,
2013-07-24 03:47:00,67.6,64.2,0.00,WNW,293,0.0,0.0,89,0.00,,,0.00,WUHU216HW,2013-07-24 07:47:00,
2013-07-24 03:52:00,67.6,64.2,0.00,WNW,293,0.0,0.0,89,0.00,,,0.00,WUHU216HW,2013-07-24 07:52:00,
2013-07-24 03:57:00,67.6,64.2,0.00,WNW,293,0.0,0.0,89,0.00,,,0.00,WUHU216HW,2013-07-24 07:57:00,
2013-07-24 04:02:00,67.6,64.2,0.00,WNW,293,0.0,0.0,89,0.00,,,0.00,WUHU216HW,2013-07-24 08:02:00,
2013-07-24 04:07:00,67.6,64.2,0.00,WNW,293,0.0,0.0,89,0.00,,,0.00,WUHU216HW,2013-07-24 08:07:00,
2013-07-24 04:12:00,67.6,64.2,0.00,WNW,293,0.0,0.0,89,0.00,,,0.00,WUHU216HW,2013-07-24 08:12:00,
2013-07-24 04:17:00,67.6,64.2,0.00,WNW,293,0.0,0.0,89,0.00,,,0.00,WUHU216HW,2013-07-24 08:17:00,
2013-07-24 04:22:00,67.6,64.2,0.00,WNW,293,0.0,0.0,89,0.00,,,0.00,WUHU216HW,2013-07-24 08:22:00,
2013-07-24 04:27:00,67.2,63.8,0.00,WNW,293,0.0,0.0,89,0.00,,,0.00,WUHU216HW,2013-07-24 08:27:00,
2013-07-24 04:32:00,67.2,63.8,0.00,WNW,293,0.0,0.0,89,0.00,,,0.00,WUHU216HW,2013-07-24 08:32:00,
2013-07-24 04:37:00,67.2,63.8,0.00,WNW,293,0.0,0.0,89,0.00,,,0.00,WUHU216HW,2013-07-24 08:37:00,
2013-07-24 04:42:00,67.2,63.8,0.00,WNW,293,0.0,0.0,89,0.00,,,0.00,WUHU216HW,2013-07-24 08:42:00,
2013-07-24 04:47:00,67.2,63.8,0.00,WNW,293,0.0,0.0,89,0.00,,,0.00,WUHU216HW,2013-07-24 08:47:00,
2013-07-24 04:52:00,67.2,63.8,0.00,WNW,293,0.0,0.0,89,0.00,,,0.00,WUHU216HW,2013-07-24 08:52:00,
2013-07-24 04:57:00,67.1,63.7,0.00,WNW,293,0.0,0.0,89,0.00,,,0.00,WUHU216HW,2013-07-24 08:57:00,
2013-07-24 05:02:00,67.1,63.7,0.00,WNW,293,0.0,0.0,89,0.00,,,0.00,WUHU216HW,2013-07-24 09:02:00,
2013-07-24 05:07:00,67.1,63.7,0.00,WNW,293,0.0,0.0,89,0.00,,,0.00,WUHU216HW,2013-07-24 09:07:00,
2013-07-24 05:12:00,66.9,63.5,0.00,WNW,293,0.0,0.0,89,0.00,,,0.00,WUHU216HW,2013-07-24 09:12:00,
2013-07-24 05:17:00,66.9,63.5,0.00,WNW,293,0.0,0.0,89,0.00,,,0.00,WUHU216HW,2013-07-24 09:17:00,
2013-07-24 05:22:00,66.9,63.5,0.00,WNW,293,0.0,0.0,89,0.00,,,0.00,WUHU216HW,2013-07-24 09:22:00,
2013-07-24 05:27:00,66.9,63.5,0.00,WNW,293,0.0,0.0,89,0.00,,,0.00,WUHU216HW,2013-07-24 09:27:00,
2013-07-24 05:32:00,66.7,63.3,0.00,WNW,293,0.0,0.0,89,0.00,,,0.00,WUHU216HW,2013-07-24 09:32:00,
2013-07-24 05:37:00,66.7,63.3,0.00,WNW,293,0.0,0.0,89,0.00,,,0.00,WUHU216HW,2013-07-24 09:37:00,
2013-07-24 05:42:00,66.7,63.3,0.00,WNW,293,0.0,0.0,89,0.00,,,0.00,WUHU216HW,2013-07-24 09:42:00,
2013-07-24 05:47:00,66.7,63.3,0.00,WNW,293,0.0,0.0,89,0.00,,,0.00,WUHU216HW,2013-07-24 09:47:00,
2013-07-24 05:52:00,66.7,63.3,0.00,WNW,293,0.0,0.0,89,0.00,,,0.00,WUHU216HW,2013-07-24 09:52:00,
2013-07-24 05:57:00,66.7,63.3,0.00,WNW,293,0.0,0.0,89,0.00,,,0.00,WUHU216HW,2013-07-24 09:57:00,
2013-07-24 06:02:00,66.7,63.3,0.00,WNW,293,0.0,0.0,89,0.00,,,0.00,WUHU216HW,2013-07-24 10:02:00,
2013-07-24 06:07:00,66.7,63.6,0.00,WNW,293,0.0,0.0,90,0.00,,,0.00,WUHU216HW,2013-07-24 10:07:00,
2013-07-24 06:12:00,66.7,63.6,0.00,WNW,293,0.0,0.0,90,0.00,,,0.00,WUHU216HW,2013-07-24 10:12:00,
2013-07-24 06:17:00,66.7,63.6,0.00,WNW,293,0.0,0.0,90,0.00,,,0.00,WUHU216HW,2013-07-24 10:17:00,
2013-07-24 06:22:00,66.7,63.6,0.00,WNW,293,0.0,0.0,90,0.00,,,0.00,WUHU216HW,2013-07-24 10:22:00,
2013-07-24 06:27:00,66.7,63.6,0.00,WNW,293,0.0,0.0,90,0.00,,,0.00,WUHU216HW,2013-07-24 10:27:00,
2013-07-24 06:32:00,66.7,63.6,0.00,WNW,293,0.0,0.0,90,0.00,,,0.00,WUHU216HW,2013-07-24 10:32:00,
2013-07-24 06:37:00,66.7,63.6,0.00,WNW,293,0.0,0.0,90,0.00,,,0.00,WUHU216HW,2013-07-24 10:37:00,
2013-07-24 06:42:00,66.7,63.6,0.00,WNW,293,0.0,0.0,90,0.00,,,0.00,WUHU216HW,2013-07-24 10:42:00,
2013-07-24 06:47:00,66.7,63.6,0.00,WNW,293,0.0,0.0,90,0.00,,,0.00,WUHU216HW,2013-07-24 10:47:00,
2013-07-24 06:52:00,66.7,63.6,0.00,WNW,293,0.0,0.0,90,0.00,,,0.00,WUHU216HW,2013-07-24 10:52:00,
2013-07-24 06:57:00,66.7,63.6,0.00,WNW,293,0.0,0.0,90,0.00,,,0.00,WUHU216HW,2013-07-24 10:57:00,
2013-07-24 07:02:00,66.7,63.6,0.00,WNW,293,0.0,0.0,90,0.00,,,0.00,WUHU216HW,2013-07-24 11:02:00,
2013-07-24 07:07:00,66.7,63.6,0.00,WNW,293,0.0,0.0,90,0.00,,,0.00,WUHU216HW,2013-07-24 11:07:00,
2013-07-24 07:12:00,66.9,63.8,0.00,WNW,293,0.0,0.0,90,0.00,,,0.00,WUHU216HW,2013-07-24 11:12:00,
2013-07-24 07:17:00,66.9,63.8,0.00,WNW,293,0.0,0.0,90,0.00,,,0.00,WUHU216HW,2013-07-24 11:17:00,
2013-07-24 07:22:00,66.9,63.8,0.00,WNW,293,0.0,0.0,90,0.00,,,0.00,WUHU216HW,2013-07-24 11:22:00,
2013-07-24 07:27:00,66.9,63.8,0.00,WNW,293,0.0,0.0,90,0.00,,,0.00,WUHU216HW,2013-07-24 11:27:00,
2013-07-24 07:32:00,66.9,63.8,0.00,WNW,293,0.0,0.0,90,0.00,,,0.00,WUHU216HW,2013-07-24 11:32:00,
2013-07-24 07:37:00,66.9,63.8,0.00,WNW,293,0.0,0.0,90,0.00,,,0.00,WUHU216HW,2013-07-24 11:37:00,
2013-07-24 07:42:00,66.9,63.8,0.00,WNW,293,0.0,0.0,90,0.00,,,0.00,WUHU216HW,2013-07-24 11:42:00,
2013-07-24 07:47:00,67.1,64.0,0.00,WNW,293,0.0,0.0,90,0.00,,,0.00,WUHU216HW,2013-07-24 11:47:00,
2013-07-24 07:52:00,67.1,64.0,0.00,WNW,293,0.0,0.0,90,0.00,,,0.00,WUHU216HW,2013-07-24 11:52:00,
2013-07-24 07:57:00,67.1,64.0,0.00,North,0,0.0,0.0,90,0.00,,,0.00,WUHU216HW,2013-07-24 11:57:00,
2013-07-24 08:02:00,67.2,64.5,0.00,WNW,293,0.0,0.0,91,0.00,,,0.00,WUHU216HW,2013-07-24 12:02:00,
2013-07-24 08:07:00,67.2,64.5,0.00,WNW,293,0.0,0.0,91,0.00,,,0.00,WUHU216HW,2013-07-24 12:07:00,
2013-07-24 08:12:00,67.6,64.8,0.00,WNW,293,0.0,0.0,91,0.00,,,0.00,WUHU216HW,2013-07-24 12:12:00,
2013-07-24 08:17:00,67.8,64.8,0.00,WNW,293,0.0,0.0,91,0.00,,,0.00,WUHU216HW,2013-07-24 12:17:00,
2013-07-24 08:22:00,67.8,65.0,0.00,WNW,293,0.0,0.0,91,0.00,,,0.00,WUHU216HW,2013-07-24 12:22:00,
2013-07-24 08:28:00,68.1,65.4,0.00,WNW,293,0.0,0.0,91,0.00,,,0.00,WUHU216HW,2013-07-24 12:28:00,
2013-07-24 08:33:00,68.3,65.6,0.00,WNW,293,0.0,0.0,91,0.00,,,0.00,WUHU216HW,2013-07-24 12:33:00,
2013-07-24 08:38:00,68.5,65.7,0.00,WNW,293,0.0,0.0,91,0.00,,,0.00,WUHU216HW,2013-07-24 12:38:00,
2013-07-24 08:43:00,68.7,65.9,0.00,WNW,293,0.0,0.0,91,0.00,,,0.00,WUHU216HW,2013-07-24 12:43:00,
2013-07-24 08:48:00,69.0,66.3,0.00,WNW,293,0.0,0.0,91,0.00,,,0.00,WUHU216HW,2013-07-24 12:48:00,
2013-07-24 08:53:00,69.4,66.5,0.00,WNW,293,0.0,0.0,91,0.00,,,0.00,WUHU216HW,2013-07-24 12:53:00,
2013-07-24 08:58:00,69.6,66.8,0.00,WNW,293,0.0,0.0,91,0.00,,,0.00,WUHU216HW,2013-07-24 12:58:00,
2013-07-24 09:03:00,69.8,67.0,0.00,WNW,293,0.0,0.0,91,0.00,,,0.00,WUHU216HW,2013-07-24 13:03:00,
2013-07-24 09:08:00,70.3,67.4,0.00,WNW,293,0.0,0.0,91,0.00,,,0.00,WUHU216HW,2013-07-24 13:08:00,
2013-07-24 09:13:00,70.5,67.7,0.00,WNW,293,0.0,0.0,91,0.00,,,0.00,WUHU216HW,2013-07-24 13:13:00,
2013-07-24 09:18:00,70.8,68.1,0.00,WNW,293,0.0,0.0,91,0.00,,,0.00,WUHU216HW,2013-07-24 13:18:00,
2013-07-24 09:23:00,71.2,68.4,0.00,WNW,293,0.0,0.0,91,0.00,,,0.00,WUHU216HW,2013-07-24 13:23:00,
2013-07-24 09:28:00,71.4,68.6,0.00,NW,315,0.0,0.0,91,0.00,,,0.00,WUHU216HW,2013-07-24 13:28:00,
2013-07-24 09:33:00,71.7,69.0,0.00,WNW,293,0.0,0.0,91,0.00,,,0.00,WUHU216HW,2013-07-24 13:33:00,
2013-07-24 09:38:00,72.1,69.3,0.00,WNW,293,0.0,0.0,91,0.00,,,0.00,WUHU216HW,2013-07-24 13:38:00,
2013-07-24 09:43:00,72.5,69.7,0.00,NW,315,0.0,0.0,91,0.00,,,0.00,WUHU216HW,2013-07-24 13:43:00,
2013-07-24 09:48:00,72.6,69.9,0.00,WNW,293,0.0,0.0,91,0.00,,,0.00,WUHU216HW,2013-07-24 13:48:00,
2013-07-24 09:53:00,72.6,69.6,0.00,NW,315,0.0,0.0,90,0.00,,,0.00,WUHU216HW,2013-07-24 13:53:00,
2013-07-24 09:58:00,72.8,69.1,0.00,SSW,203,0.0,0.0,88,0.00,,,0.00,WUHU216HW,2013-07-24 13:58:00,
2013-07-24 10:03:00,72.8,68.4,0.00,WNW,293,0.0,0.0,86,0.00,,,0.00,WUHU216HW,2013-07-24 14:03:00,
2013-07-24 10:08:00,73.0,67.9,0.00,WNW,293,0.0,0.0,84,0.00,,,0.00,WUHU216HW,2013-07-24 14:08:00,
2013-07-24 10:13:00,73.2,68.1,0.00,West,270,0.0,0.0,84,0.00,,,0.00,WUHU216HW,2013-07-24 14:13:00,
2013-07-24 10:18:00,73.0,67.2,0.00,North,0,0.0,0.0,82,0.00,,,0.00,WUHU216HW,2013-07-24 14:18:00,
2013-07-24 10:23:00,72.6,66.8,0.00,WNW,293,0.0,0.0,82,0.00,,,0.00,WUHU216HW,2013-07-24 14:23:00,
2013-07-24 10:28:00,72.3,66.5,0.00,WNW,293,0.0,0.0,82,0.00,,,0.00,WUHU216HW,2013-07-24 14:28:00,
2013-07-24 10:33:00,71.9,66.1,0.00,WNW,293,0.0,0.0,82,0.00,,,0.00,WUHU216HW,2013-07-24 14:33:00,
2013-07-24 10:38:00,71.4,65.9,0.00,WNW,293,0.0,0.0,83,0.00,,,0.00,WUHU216HW,2013-07-24 14:38:00,
2013-07-24 10:43:00,71.2,65.7,0.00,WNW,293,0.0,0.0,83,0.00,,,0.00,WUHU216HW,2013-07-24 14:43:00,
2013-07-24 10:48:00,71.0,65.6,0.00,WNW,293,0.0,0.0,83,0.00,,,0.00,WUHU216HW,2013-07-24 14:48:00,
2013-07-24 10:53:00,70.8,65.4,0.00,WNW,293,0.0,0.0,83,0.00,,,0.00,WUHU216HW,2013-07-24 14:53:00,
2013-07-24 10:58:00,70.8,65.7,0.00,WNW,293,0.0,0.0,84,0.00,,,0.00,WUHU216HW,2013-07-24 14:58:00,
2013-07-24 11:03:00,71.2,65.7,0.00,WNW,293,0.0,0.0,83,0.00,,,0.00,WUHU216HW,2013-07-24 15:03:00,
2013-07-24 11:08:00,71.2,65.7,0.00,WNW,293,0.0,0.0,83,0.00,,,0.00,WUHU216HW,2013-07-24 15:08:00,
2013-07-24 11:13:00,71.4,65.9,0.00,NW,315,0.0,0.0,83,0.00,,,0.00,WUHU216HW,2013-07-24 15:13:00,
2013-07-24 11:18:00,72.1,66.6,0.00,SE,135,0.0,0.0,83,0.00,,,0.00,WUHU216HW,2013-07-24 15:18:00,
2013-07-24 11:23:00,72.6,67.2,0.00,SE,135,0.0,0.0,83,0.00,,,0.00,WUHU216HW,2013-07-24 15:23:00,
2013-07-24 11:28:00,73.5,67.9,0.00,SE,135,0.0,0.0,83,0.00,,,0.00,WUHU216HW,2013-07-24 15:28:00,
2013-07-24 11:33:00,73.9,68.1,0.00,SE,135,0.0,0.0,82,0.00,,,0.00,WUHU216HW,2013-07-24 15:33:00,
2013-07-24 11:38:00,74.8,69.0,0.00,SE,135,0.0,0.0,82,0.00,,,0.00,WUHU216HW,2013-07-24 15:38:00,
2013-07-24 11:43:00,75.0,68.8,0.00,NW,315,0.0,0.0,81,0.00,,,0.00,WUHU216HW,2013-07-24 15:43:00,
2013-07-24 11:48:00,75.3,69.2,0.00,NW,315,0.0,0.0,81,0.00,,,0.00,WUHU216HW,2013-07-24 15:48:00,
2013-07-24 11:53:00,75.7,69.7,0.00,South,180,0.0,0.0,81,0.00,,,0.00,WUHU216HW,2013-07-24 15:53:00,
2013-07-24 11:58:00,76.2,69.6,0.00,SSW,203,0.0,0.0,80,0.00,,,0.00,WUHU216HW,2013-07-24 15:58:00,
2013-07-24 12:03:00,76.6,70.0,0.00,South,180,0.0,0.0,80,0.00,,,0.00,WUHU216HW,2013-07-24 16:03:00,
2013-07-24 12:08:00,76.8,70.1,0.00,WNW,293,0.0,0.0,80,0.00,,,0.00,WUHU216HW,2013-07-24 16:08:00,
2013-07-24 12:13:00,77.1,70.1,0.00,WNW,293,0.0,0.0,79,0.00,,,0.00,WUHU216HW,2013-07-24 16:13:00,
2013-07-24 12:18:00,77.3,70.3,0.00,South,180,0.0,0.0,79,0.00,,,0.00,WUHU216HW,2013-07-24 16:18:00,
2013-07-24 12:23:00,77.7,70.6,0.00,South,180,0.0,0.0,79,0.00,,,0.00,WUHU216HW,2013-07-24 16:23:00,
2013-07-24 12:28:00,77.9,70.8,0.00,NW,315,0.0,0.0,79,0.00,,,0.00,WUHU216HW,2013-07-24 16:28:00,
2013-07-24 12:33:00,78.2,71.0,0.00,NW,315,0.0,0.0,79,0.00,,,0.00,WUHU216HW,2013-07-24 16:33:00,
2013-07-24 12:38:00,78.6,71.1,0.00,SE,135,0.0,0.0,78,0.00,,,0.00,WUHU216HW,2013-07-24 16:38:00,
2013-07-24 12:43:00,78.8,71.3,0.00,SE,135,0.0,0.0,78,0.00,,,0.00,WUHU216HW,2013-07-24 16:43:00,
2013-07-24 12:48:00,78.9,71.1,0.00,SSW,203,0.0,0.0,77,0.00,,,0.00,WUHU216HW,2013-07-24 16:48:00,
2013-07-24 12:53:00,78.9,71.1,0.00,WNW,293,0.0,0.0,77,0.00,,,0.00,WUHU216HW,2013-07-24 16:53:00,
2013-07-24 12:58:00,78.9,70.7,0.00,WNW,293,0.0,0.0,76,0.00,,,0.00,WUHU216HW,2013-07-24 16:58:00,
2013-07-24 13:03:00,78.9,70.7,0.00,West,270,0.0,0.0,76,0.00,,,0.00,WUHU216HW,2013-07-24 17:03:00,
2013-07-24 13:08:00,78.9,70.3,0.00,SSE,158,0.0,0.0,75,0.00,,,0.00,WUHU216HW,2013-07-24 17:08:00,
2013-07-24 13:13:00,79.3,71.0,0.00,SE,135,0.0,0.0,76,0.00,,,0.00,WUHU216HW,2013-07-24 17:13:00,
2013-07-24 13:18:00,79.5,71.2,0.00,NW,315,0.0,0.0,76,0.00,,,0.00,WUHU216HW,2013-07-24 17:18:00,
2013-07-24 13:23:00,79.8,71.6,0.00,NW,315,0.0,0.0,76,0.00,,,0.00,WUHU216HW,2013-07-24 17:23:00,
2013-07-24 13:28:00,80.4,72.1,0.00,SE,135,0.0,0.0,76,0.00,,,0.00,WUHU216HW,2013-07-24 17:28:00,
2013-07-24 13:33:00,80.7,71.7,0.00,SSE,158,0.0,0.0,74,0.00,,,0.00,WUHU216HW,2013-07-24 17:33:00,
2013-07-24 13:38:00,80.7,71.7,0.00,NW,315,0.0,0.0,74,0.00,,,0.00,WUHU216HW,2013-07-24 17:38:00,
2013-07-24 13:43:00,80.7,71.3,0.00,West,270,0.0,0.0,73,0.00,,,0.00,WUHU216HW,2013-07-24 17:43:00,
2013-07-24 13:48:00,80.7,71.7,0.00,West,270,0.0,0.0,74,0.00,,,0.00,WUHU216HW,2013-07-24 17:48:00,
2013-07-24 13:53:00,80.9,71.8,0.00,South,180,0.0,0.0,74,0.00,,,0.00,WUHU216HW,2013-07-24 17:53:00,
2013-07-24 13:58:00,81.1,72.0,0.00,South,180,0.0,0.0,74,0.00,,,0.00,WUHU216HW,2013-07-24 17:58:00,
2013-07-24 14:03:00,80.9,71.8,0.00,South,180,0.0,0.0,74,0.00,,,0.00,WUHU216HW,2013-07-24 18:03:00,
2013-07-24 14:08:00,80.7,71.7,0.00,SSW,203,0.0,0.0,74,0.00,,,0.00,WUHU216HW,2013-07-24 18:08:00,
2013-07-24 14:13:00,80.7,71.7,0.00,South,180,0.0,0.0,74,0.00,,,0.00,WUHU216HW,2013-07-24 18:13:00,
2013-07-24 14:18:00,81.1,72.4,0.00,South,180,0.0,0.0,75,0.00,,,0.00,WUHU216HW,2013-07-24 18:18:00,
2013-07-24 14:23:00,81.6,72.1,0.00,WNW,293,0.0,0.0,74,0.00,,,0.00,WUHU216HW,2013-07-24 18:23:00,
2013-07-24 14:28:00,81.6,71.3,0.00,North,0,0.0,0.0,71,0.00,,,0.00,WUHU216HW,2013-07-24 18:28:00,
2013-07-24 14:33:00,81.6,71.3,0.00,NNW,338,0.0,0.0,71,0.00,,,0.00,WUHU216HW,2013-07-24 18:33:00,
2013-07-24 14:38:00,81.8,71.1,0.00,WNW,293,0.0,0.0,70,0.00,,,0.00,WUHU216HW,2013-07-24 18:38:00,
2013-07-24 14:43:00,81.6,70.5,0.00,NW,315,0.0,0.0,69,0.00,,,0.00,WUHU216HW,2013-07-24 18:43:00,
2013-07-24 14:48:00,81.5,70.7,0.00,NW,315,0.0,0.0,70,0.00,,,0.00,WUHU216HW,2013-07-24 18:48:00,
2013-07-24 14:53:00,81.5,70.7,0.00,NW,315,0.0,0.0,70,0.00,,,0.00,WUHU216HW,2013-07-24 18:53:00,
2013-07-24 14:58:00,81.5,70.7,0.00,NW,315,0.0,0.0,70,0.00,,,0.00,WUHU216HW,2013-07-24 18:58:00,
2013-07-24 15:06:00,81.5,70.7,0.00,NW,315,0.0,0.0,70,0.00,,,0.00,WUHU216HW,2013-07-24 19:06:00,
2013-07-24 15:11:00,81.3,69.7,0.00,NW,315,0.0,0.0,68,0.00,,,0.00,WUHU216HW,2013-07-24 19:11:00,
2013-07-24 15:16:00,81.3,69.8,0.00,WNW,293,0.0,0.0,68,0.00,,,0.00,WUHU216HW,2013-07-24 19:16:00,
2013-07-24 15:21:00,81.5,69.8,0.00,NW,315,0.0,0.0,68,0.00,,,0.00,WUHU216HW,2013-07-24 19:21:00,
2013-07-24 15:27:00,81.5,68.9,0.00,WNW,293,0.0,0.0,66,0.00,,,0.00,WUHU216HW,2013-07-24 19:27:00,
2013-07-24 15:32:00,81.6,68.7,0.00,WSW,248,0.0,0.0,65,0.00,,,0.00,WUHU216HW,2013-07-24 19:32:00,
2013-07-24 15:37:00,81.5,68.9,0.00,South,180,0.0,0.0,66,0.00,,,0.00,WUHU216HW,2013-07-24 19:37:00,
2013-07-24 15:42:00,81.3,69.2,0.00,WNW,293,0.0,0.0,67,0.00,,,0.00,WUHU216HW,2013-07-24 19:42:00,
2013-07-24 15:47:00,81.1,67.7,0.00,South,180,0.0,0.0,64,0.00,,,0.00,WUHU216HW,2013-07-24 19:47:00,
2013-07-24 15:52:00,81.1,67.3,0.00,NW,315,0.0,0.0,63,0.00,,,0.00,WUHU216HW,2013-07-24 19:52:00,
2013-07-24 15:57:00,80.9,67.1,0.00,WNW,293,0.0,0.0,63,0.00,,,0.00,WUHU216HW,2013-07-24 19:57:00,
2013-07-24 16:06:00,80.9,67.1,0.00,WNW,293,0.0,0.0,63,0.00,,,0.00,WUHU216HW,2013-07-24 20:06:00,
2013-07-24 16:11:00,80.4,67.1,0.00,NW,315,0.0,0.0,64,0.00,,,0.00,WUHU216HW,2013-07-24 20:11:00,
2013-07-24 16:16:00,80.2,66.9,0.00,WNW,293,0.0,0.0,64,0.00,,,0.00,WUHU216HW,2013-07-24 20:16:00,
2013-07-24 16:21:00,80.0,67.2,0.00,WNW,293,0.0,0.0,65,0.00,,,0.00,WUHU216HW,2013-07-24 20:21:00,
2013-07-24 16:26:00,79.8,67.4,0.00,WNW,293,0.0,0.0,66,0.00,,,0.00,WUHU216HW,2013-07-24 20:26:00,
2013-07-24 16:31:00,79.5,67.5,0.00,WNW,293,0.0,0.0,67,0.00,,,0.00,WUHU216HW,2013-07-24 20:31:00,
2013-07-24 16:36:00,79.5,67.5,0.00,South,180,0.0,0.0,67,0.00,,,0.00,WUHU216HW,2013-07-24 20:36:00,
2013-07-24 16:41:00,79.5,67.1,0.00,WNW,293,0.0,0.0,66,0.00,,,0.00,WUHU216HW,2013-07-24 20:41:00,
2013-07-24 16:46:00,79.5,67.5,0.00,WNW,293,0.0,0.0,67,0.00,,,0.00,WUHU216HW,2013-07-24 20:46:00,
2013-07-24 16:51:00,79.5,67.5,0.00,SW,225,0.0,0.0,67,0.00,,,0.00,WUHU216HW,2013-07-24 20:51:00,
2013-07-24 16:56:00,79.5,67.5,0.00,SW,225,0.0,0.0,67,0.00,,,0.00,WUHU216HW,2013-07-24 20:56:00,
2013-07-24 17:02:00,79.5,67.5,0.00,NW,315,0.0,0.0,67,0.00,,,0.00,WUHU216HW,2013-07-24 21:02:00,
2013-07-24 17:07:00,79.7,67.3,0.00,NW,315,0.0,0.0,66,0.00,,,0.00,WUHU216HW,2013-07-24 21:07:00,
2013-07-24 17:12:00,79.7,67.7,0.00,NW,315,0.0,0.0,67,0.00,,,0.00,WUHU216HW,2013-07-24 21:12:00,
2013-07-24 17:17:00,79.5,67.5,0.00,NW,315,0.0,0.0,67,0.00,,,0.00,WUHU216HW,2013-07-24 21:17:00,
2013-07-24 17:22:00,79.5,67.5,0.00,WNW,293,0.0,0.0,67,0.00,,,0.00,WUHU216HW,2013-07-24 21:22:00,
2013-07-24 17:27:00,79.5,67.1,0.00,East,90,0.0,0.0,66,0.00,,,0.00,WUHU216HW,2013-07-24 21:27:00,
2013-07-24 17:32:00,79.7,67.3,0.00,WNW,293,0.0,0.0,66,0.00,,,0.00,WUHU216HW,2013-07-24 21:32:00,
2013-07-24 17:37:00,79.8,67.4,0.00,West,270,0.0,0.0,66,0.00,,,0.00,WUHU216HW,2013-07-24 21:37:00,
2013-07-24 17:42:00,79.8,67.9,0.00,SSW,203,0.0,0.0,67,0.00,,,0.00,WUHU216HW,2013-07-24 21:42:00,
2013-07-24 17:47:00,79.8,68.3,0.00,SSW,203,0.0,0.0,68,0.00,,,0.00,WUHU216HW,2013-07-24 21:47:00,
2013-07-24 17:52:00,79.5,67.7,0.00,NW,315,0.0,0.0,67,0.00,,,0.00,WUHU216HW,2013-07-24 21:52:00,
2013-07-24 17:57:00,79.5,67.5,0.00,NW,315,0.0,0.0,67,0.00,,,0.00,WUHU216HW,2013-07-24 21:57:00,
2013-07-24 18:02:00,79.1,67.6,0.00,West,270,0.0,0.0,68,0.00,,,0.00,WUHU216HW,2013-07-24 22:02:00,
2013-07-24 18:07:00,78.8,67.1,0.00,NW,315,0.0,0.0,68,0.00,,,0.00,WUHU216HW,2013-07-24 22:07:00,
2013-07-24 18:12:00,78.4,67.4,0.00,WNW,293,0.0,0.0,69,0.00,,,0.00,WUHU216HW,2013-07-24 22:12:00,
2013-07-24 18:17:00,78.0,67.5,0.00,WNW,293,0.0,0.0,70,0.00,,,0.00,WUHU216HW,2013-07-24 22:17:00,
2013-07-24 18:22:00,77.7,67.2,0.00,WNW,293,0.0,0.0,70,0.00,,,0.00,WUHU216HW,2013-07-24 22:22:00,
2013-07-24 18:27:00,77.3,67.4,0.00,WNW,293,0.0,0.0,71,0.00,,,0.00,WUHU216HW,2013-07-24 22:27:00,
2013-07-24 18:32:00,77.1,67.4,0.00,WNW,293,0.0,0.0,72,0.00,,,0.00,WUHU216HW,2013-07-24 22:32:00,
2013-07-24 18:37:00,76.8,67.1,0.00,WNW,293,0.0,0.0,72,0.00,,,0.00,WUHU216HW,2013-07-24 22:37:00,
2013-07-24 18:42:00,76.4,67.1,0.00,NW,315,0.0,0.0,73,0.00,,,0.00,WUHU216HW,2013-07-24 22:42:00,
2013-07-24 18:47:00,76.1,66.8,0.00,NW,315,0.0,0.0,73,0.00,,,0.00,WUHU216HW,2013-07-24 22:47:00,
2013-07-24 18:52:00,75.9,67.0,0.00,NW,315,0.0,0.0,74,0.00,,,0.00,WUHU216HW,2013-07-24 22:52:00,
2013-07-24 18:57:00,75.7,66.8,0.00,NW,315,0.0,0.0,74,0.00,,,0.00,WUHU216HW,2013-07-24 22:57:00,
2013-07-24 19:02:00,75.7,66.8,0.00,NW,315,0.0,0.0,74,0.00,,,0.00,WUHU216HW,2013-07-24 23:02:00,
2013-07-24 19:07:00,75.7,67.2,0.00,NW,315,0.0,0.0,75,0.00,,,0.00,WUHU216HW,2013-07-24 23:07:00,
2013-07-24 19:12:00,75.5,67.0,0.00,NW,315,0.0,0.0,75,0.00,,,0.00,WUHU216HW,2013-07-24 23:12:00,
2013-07-24 19:17:00,75.3,66.9,0.00,NW,315,0.0,0.0,75,0.00,,,0.00,WUHU216HW,2013-07-24 23:17:00,
2013-07-24 19:22:00,75.0,66.5,0.00,NW,315,0.0,0.0,75,0.00,,,0.00,WUHU216HW,2013-07-24 23:22:00,
2013-07-24 19:23:00,75.0,66.5,0.00,NW,315,0.0,0.0,75,0.00,,,0.00,WUHU216HW,2013-07-24 23:23:00,
2013-07-24 19:28:00,75.0,66.5,0.00,WNW,293,0.0,0.0,75,0.00,,,0.00,WUHU216HW,2013-07-24 23:28:00,
2013-07-24 19:33:00,74.8,66.7,0.00,WNW,293,0.0,0.0,76,0.00,,,0.00,WUHU216HW,2013-07-24 23:33:00,
2013-07-24 19:38:00,74.6,66.6,0.00,WNW,293,0.0,0.0,76,0.00,,,0.00,WUHU216HW,2013-07-24 23:38:00,
2013-07-24 19:43:00,74.4,66.8,0.00,WNW,293,0.0,0.0,77,0.00,,,0.00,WUHU216HW,2013-07-24 23:43:00,
2013-07-24 19:48:00,74.3,66.6,0.00,WNW,293,0.0,0.0,77,0.00,,,0.00,WUHU216HW,2013-07-24 23:48:00,
2013-07-24 19:53:00,74.1,66.8,0.00,WNW,293,0.0,0.0,78,0.00,,,0.00,WUHU216HW,2013-07-24 23:53:00,
2013-07-24 19:58:00,73.9,66.6,0.00,WNW,293,0.0,0.0,78,0.00,,,0.00,WUHU216HW,2013-07-24 23:58:00,
2013-07-24 20:03:00,73.7,66.5,0.00,WNW,293,0.0,0.0,78,0.00,,,0.00,WUHU216HW,2013-07-25 00:03:00,
2013-07-24 20:08:00,73.5,66.7,0.00,WNW,293,0.0,0.0,79,0.00,,,0.00,WUHU216HW,2013-07-25 00:08:00,
2013-07-24 20:13:00,73.5,66.7,0.00,WNW,293,0.0,0.0,79,0.00,,,0.00,WUHU216HW,2013-07-25 00:13:00,
2013-07-24 20:18:00,73.5,67.1,0.00,WNW,293,0.0,0.0,80,0.00,,,0.00,WUHU216HW,2013-07-25 00:18:00,
2013-07-24 20:23:00,73.5,67.1,0.00,WNW,293,0.0,0.0,80,0.00,,,0.00,WUHU216HW,2013-07-25 00:23:00,
2013-07-24 20:28:00,73.5,67.1,0.00,WNW,293,0.0,0.0,80,0.00,,,0.00,WUHU216HW,2013-07-25 00:28:00,
2013-07-24 20:33:00,73.2,66.7,0.00,WNW,293,0.0,0.0,80,0.00,,,0.00,WUHU216HW,2013-07-25 00:33:00,
2013-07-24 20:38:00,73.2,66.7,0.00,WNW,293,0.0,0.0,80,0.00,,,0.00,WUHU216HW,2013-07-25 00:38:00,
2013-07-24 20:43:00,73.2,66.7,0.00,WNW,293,0.0,0.0,80,0.00,,,0.00,WUHU216HW,2013-07-25 00:43:00,
2013-07-24 20:48:00,72.8,66.3,0.00,WNW,293,0.0,0.0,80,0.00,,,0.00,WUHU216HW,2013-07-25 00:48:00,
2013-07-24 20:53:00,72.6,66.2,0.00,WNW,293,0.0,0.0,80,0.00,,,0.00,WUHU216HW,2013-07-25 00:53:00,
2013-07-24 20:58:00,72.5,66.0,0.00,WNW,293,0.0,0.0,80,0.00,,,0.00,WUHU216HW,2013-07-25 00:58:00,
2013-07-24 21:03:00,72.3,65.8,0.00,WNW,293,0.0,0.0,80,0.00,,,0.00,WUHU216HW,2013-07-25 01:03:00,
2013-07-24 21:08:00,72.1,66.0,0.00,North,0,0.0,0.0,81,0.00,,,0.00,WUHU216HW,2013-07-25 01:08:00,
2013-07-24 21:13:00,71.7,65.6,0.00,WNW,293,0.0,0.0,81,0.00,,,0.00,WUHU216HW,2013-07-25 01:13:00,
2013-07-24 21:18:00,71.4,65.2,0.00,WNW,293,0.0,0.0,81,0.00,,,0.00,WUHU216HW,2013-07-25 01:18:00,
2013-07-24 21:23:00,71.2,65.4,0.00,WNW,293,0.0,0.0,82,0.00,,,0.00,WUHU216HW,2013-07-25 01:23:00,
2013-07-24 21:28:00,70.8,65.0,0.00,WNW,293,0.0,0.0,82,0.00,,,0.00,WUHU216HW,2013-07-25 01:28:00,
2013-07-24 21:33:00,70.8,65.4,0.00,WNW,293,0.0,0.0,83,0.00,,,0.00,WUHU216HW,2013-07-25 01:33:00,
2013-07-24 21:38:00,70.8,65.4,0.00,WNW,293,0.0,0.0,83,0.00,,,0.00,WUHU216HW,2013-07-25 01:38:00,
2013-07-24 21:43:00,70.5,65.0,0.00,WNW,293,0.0,0.0,83,0.00,,,0.00,WUHU216HW,2013-07-25 01:43:00,
2013-07-24 21:48:00,70.3,64.8,0.00,WNW,293,0.0,0.0,83,0.00,,,0.00,WUHU216HW,2013-07-25 01:48:00,
2013-07-24 21:53:00,70.3,64.8,0.00,WNW,293,0.0,0.0,83,0.00,,,0.00,WUHU216HW,2013-07-25 01:53:00,
2013-07-24 21:58:00,70.1,65.0,0.00,WNW,293,0.0,0.0,84,0.00,,,0.00,WUHU216HW,2013-07-25 01:58:00,
2013-07-24 22:03:00,70.1,65.0,0.00,WNW,293,0.0,0.0,84,0.00,,,0.00,WUHU216HW,2013-07-25 02:03:00,
2013-07-24 22:08:00,69.9,64.8,0.00,WNW,293,0.0,0.0,84,0.00,,,0.00,WUHU216HW,2013-07-25 02:08:00,
2013-07-24 22:13:00,69.9,64.8,0.00,WNW,293,0.0,0.0,84,0.00,,,0.00,WUHU216HW,2013-07-25 02:13:00,
2013-07-24 22:18:00,69.8,64.6,0.00,WNW,293,0.0,0.0,84,0.00,,,0.00,WUHU216HW,2013-07-25 02:18:00,
2013-07-24 22:23:00,69.6,64.6,0.00,WNW,293,0.0,0.0,84,0.00,,,0.00,WUHU216HW,2013-07-25 02:23:00,
2013-07-24 22:28:00,69.8,64.6,0.00,WNW,293,0.0,0.0,84,0.00,,,0.00,WUHU216HW,2013-07-25 02:28:00,
2013-07-24 22:33:00,69.6,64.5,0.00,WNW,293,0.0,0.0,84,0.00,,,0.00,WUHU216HW,2013-07-25 02:33:00,
2013-07-24 22:38:00,69.6,64.5,0.00,WNW,293,0.0,0.0,84,0.00,,,0.00,WUHU216HW,2013-07-25 02:38:00,
2013-07-24 22:43:00,69.4,64.6,0.00,WNW,293,0.0,0.0,85,0.00,,,0.00,WUHU216HW,2013-07-25 02:43:00,
2013-07-24 22:48:00,69.0,64.3,0.00,WNW,293,0.0,0.0,85,0.00,,,0.00,WUHU216HW,2013-07-25 02:48:00,
2013-07-24 22:53:00,69.0,64.3,0.00,WNW,293,0.0,0.0,85,0.00,,,0.00,WUHU216HW,2013-07-25 02:53:00,
2013-07-24 22:58:00,69.0,64.6,0.00,WNW,293,0.0,0.0,86,0.00,,,0.00,WUHU216HW,2013-07-25 02:58:00,
2013-07-24 23:03:00,69.0,64.6,0.00,WNW,293,0.0,0.0,86,0.00,,,0.00,WUHU216HW,2013-07-25 03:03:00,
2013-07-24 23:08:00,69.0,64.6,0.00,WNW,293,0.0,0.0,86,0.00,,,0.00,WUHU216HW,2013-07-25 03:08:00,
2013-07-24 23:13:00,69.2,64.8,0.00,WNW,293,0.0,0.0,86,0.00,,,0.00,WUHU216HW,2013-07-25 03:13:00,
2013-07-24 23:18:00,69.2,64.8,0.00,WNW,293,0.0,0.0,86,0.00,,,0.00,WUHU216HW,2013-07-25 03:18:00,
2013-07-24 23:24:00,69.0,64.6,0.00,WNW,293,0.0,0.0,86,0.00,,,0.00,WUHU216HW,2013-07-25 03:24:00,
2013-07-24 23:29:00,68.9,64.5,0.00,WNW,293,0.0,0.0,86,0.00,,,0.00,WUHU216HW,2013-07-25 03:29:00,
2013-07-24 23:34:00,68.7,64.3,0.00,WNW,293,0.0,0.0,86,0.00,,,0.00,WUHU216HW,2013-07-25 03:34:00,
2013-07-24 23:39:00,68.7,64.3,0.00,WNW,293,0.0,0.0,86,0.00,,,0.00,WUHU216HW,2013-07-25 03:39:00,
2013-07-24 23:44:00,68.7,64.3,0.00,WNW,293,0.0,0.0,86,0.00,,,0.00,WUHU216HW,2013-07-25 03:44:00,
2013-07-24 23:49:00,68.5,64.1,0.00,WNW,293,0.0,0.0,86,0.00,,,0.00,WUHU216HW,2013-07-25 03:49:00,
2013-07-24 23:55:00,68.5,64.1,0.00,WNW,293,0.0,0.0,86,0.00,,,0.00,WUHU216HW,2013-07-25 03:55:00,